createdAt,value
2022-10-11T00:09:20.576Z,13.80
2022-10-11T00:39:37.630Z,12.00
2022-10-11T01:09:46.482Z,11.50
2022-10-11T01:40:04.613Z,11.30
2022-10-11T02:10:19.329Z,10.90
2022-10-11T02:40:34.807Z,11.20
2022-10-11T03:10:45.441Z,11.40
2022-10-11T03:40:54.880Z,11.50
2022-10-11T04:11:04.744Z,11.50
2022-10-11T04:41:15.872Z,11.40
2022-10-11T05:11:24.743Z,11.40
2022-10-11T05:41:40.516Z,11.40
2022-10-11T06:11:51.594Z,11.50
2022-10-11T06:42:00.008Z,11.60
2022-10-11T07:12:12.253Z,11.90
2022-10-11T07:42:30.806Z,11.90
2022-10-11T08:12:40.067Z,13.00
2022-10-11T08:42:56.688Z,15.20
2022-10-11T09:13:19.626Z,14.80
2022-10-11T09:43:31.350Z,14.60
2022-10-11T10:13:50.038Z,15.50
2022-10-11T10:44:03.474Z,14.50
2022-10-11T11:14:26.492Z,15.10
2022-10-11T11:44:40.657Z,15.20
2022-10-11T12:15:07.456Z,14.30
2022-10-11T12:45:39.746Z,14.20
2022-10-11T13:15:52.311Z,13.90
2022-10-11T13:46:07.737Z,15.60
2022-10-11T14:16:36.952Z,15.70
2022-10-11T14:46:45.611Z,14.90
2022-10-11T15:17:01.747Z,14.60
2022-10-11T15:47:13.856Z,13.70
2022-10-11T16:17:28.042Z,12.70
2022-10-11T16:47:36.803Z,12.20
2022-10-11T17:17:46.070Z,11.10
2022-10-11T17:47:56.703Z,10.60
2022-10-11T18:18:08.208Z,9.80
2022-10-11T18:48:17.148Z,9.00
2022-10-11T19:18:29.847Z,8.30
2022-10-11T19:48:44.142Z,7.80
2022-10-11T20:18:54.540Z,7.50
2022-10-11T20:49:04.713Z,7.00
2022-10-11T21:19:17.110Z,6.70
2022-10-11T21:49:30.662Z,6.40
2022-10-11T22:19:39.258Z,6.00
2022-10-11T22:49:55.014Z,5.70
2022-10-11T23:20:04.672Z,5.50
2022-10-11T23:50:13.718Z,5.00
